createdAt,value
2022-08-05T00:02:23.294Z,6.77
2022-08-05T00:04:55.087Z,7.67
2022-08-05T00:08:00.195Z,4.27
2022-08-05T00:10:11.783Z,8.87
2022-08-05T00:12:56.725Z,4.83
2022-08-05T00:15:56.001Z,5.33
2022-08-05T00:18:21.596Z,6.07
2022-08-05T00:20:51.732Z,5.07
2022-08-05T00:23:44.384Z,8.00
2022-08-05T00:26:08.238Z,9.27
2022-08-05T00:28:36.675Z,9.30
2022-08-05T00:31:04.890Z,4.47
2022-08-05T00:34:54.218Z,7.00
2022-08-05T00:37:11.270Z,4.57
2022-08-05T00:39:13.982Z,6.40
2022-08-05T00:41:55.289Z,3.33
2022-08-05T00:44:30.343Z,6.10
2022-08-05T00:47:03.670Z,5.53
2022-08-05T00:49:32.671Z,4.50
2022-08-05T00:52:13.484Z,5.53
2022-08-05T00:54:41.059Z,7.40
2022-08-05T00:57:11.060Z,6.07
2022-08-05T00:59:44.363Z,5.53
2022-08-05T01:02:12.678Z,7.30
2022-08-05T01:04:44.363Z,4.20
2022-08-05T01:07:19.410Z,6.73
2022-08-05T01:09:47.060Z,7.40
2022-08-05T01:12:24.715Z,7.07
2022-08-05T01:15:04.131Z,4.20
2022-08-05T01:17:39.957Z,8.57
2022-08-05T01:20:15.251Z,6.30
2022-08-05T01:22:57.447Z,5.00
2022-08-05T01:25:42.217Z,5.47
2022-08-05T01:28:34.930Z,8.00
2022-08-05T01:31:08.101Z,8.07
2022-08-05T01:33:38.362Z,8.93
2022-08-05T01:36:12.643Z,4.03
2022-08-05T01:38:41.236Z,10.23
2022-08-05T01:41:09.133Z,10.00
2022-08-05T01:43:39.529Z,10.50
2022-08-05T01:46:16.334Z,11.33
2022-08-05T01:48:57.099Z,9.77
2022-08-05T01:51:24.943Z,12.93
2022-08-05T01:53:59.006Z,11.57
2022-08-05T01:58:10.899Z,10.30
2022-08-05T01:59:23.274Z,11.60
2022-08-05T02:01:51.369Z,9.60
2022-08-05T02:04:23.693Z,10.50
2022-08-05T02:06:51.868Z,9.23
2022-08-05T02:09:20.547Z,10.93
2022-08-05T02:11:52.823Z,11.90
2022-08-05T02:14:28.905Z,8.33
2022-08-05T02:17:03.551Z,14.23
2022-08-05T02:19:34.984Z,9.80
2022-08-05T02:22:07.451Z,13.63
2022-08-05T02:24:37.909Z,13.30
2022-08-05T02:27:10.053Z,12.37
2022-08-05T02:29:59.751Z,10.47
2022-08-05T02:32:31.513Z,12.77
2022-08-05T02:35:05.164Z,13.17
2022-08-05T02:37:42.870Z,11.80
2022-08-05T02:40:17.670Z,13.73
2022-08-05T02:42:53.097Z,12.97
2022-08-05T02:45:25.348Z,12.80
2022-08-05T02:48:07.545Z,13.43
2022-08-05T02:50:44.127Z,16.87
2022-08-05T02:53:16.070Z,19.67
2022-08-05T02:55:54.377Z,23.30
2022-08-05T02:58:26.807Z,24.77
2022-08-05T03:00:57.464Z,28.73
2022-08-05T03:03:25.409Z,33.23
2022-08-05T03:06:54.538Z,26.60
2022-08-05T03:08:42.580Z,28.63
2022-08-05T03:11:54.843Z,25.57
2022-08-05T03:14:08.992Z,20.27
2022-08-05T03:16:42.251Z,21.90
2022-08-05T03:19:17.239Z,19.97
2022-08-05T03:21:57.928Z,18.10
2022-08-05T03:24:30.171Z,19.97
2022-08-05T03:26:58.470Z,13.83
2022-08-05T03:29:46.029Z,19.63
2022-08-05T03:32:16.302Z,18.93
2022-08-05T03:34:51.246Z,14.77
2022-08-05T03:37:20.125Z,18.87
2022-08-05T03:40:00.811Z,16.90
2022-08-05T03:42:32.818Z,16.27
2022-08-05T03:45:21.611Z,19.70
2022-08-05T03:47:57.100Z,15.43
2022-08-05T03:50:26.692Z,15.87
2022-08-05T03:54:59.166Z,14.77
2022-08-05T03:56:10.444Z,19.87
2022-08-05T03:58:44.018Z,18.03
2022-08-05T04:01:13.398Z,15.43
2022-08-05T04:04:08.844Z,15.07
2022-08-05T04:06:32.170Z,15.53
2022-08-05T04:09:00.378Z,14.53
2022-08-05T04:11:50.483Z,11.23
2022-08-05T04:14:17.934Z,20.57
2022-08-05T04:16:45.995Z,14.60
2022-08-05T04:19:15.931Z,11.90
2022-08-05T04:22:08.278Z,15.20
2022-08-05T04:24:32.802Z,17.97
2022-08-05T04:27:00.386Z,18.73
2022-08-05T04:29:28.565Z,18.57
2022-08-05T04:31:57.550Z,18.43
2022-08-05T04:34:32.255Z,17.77
2022-08-05T04:37:03.000Z,17.33
2022-08-05T04:39:31.208Z,14.53
2022-08-05T04:42:00.102Z,17.50
2022-08-05T04:44:30.725Z,14.13
2022-08-05T04:46:59.171Z,15.27
2022-08-05T04:49:38.709Z,17.83
2022-08-05T04:52:16.328Z,12.77
2022-08-05T04:54:43.960Z,18.13
2022-08-05T04:57:11.647Z,19.97
2022-08-05T04:59:40.699Z,20.97
2022-08-05T05:02:36.136Z,20.43
2022-08-05T05:05:02.728Z,18.63
2022-08-05T05:07:32.826Z,18.27
2022-08-05T05:10:05.291Z,19.13
2022-08-05T05:12:33.947Z,20.70
2022-08-05T05:15:05.221Z,18.40
2022-08-05T05:17:56.882Z,20.70
2022-08-05T05:20:28.705Z,16.90
2022-08-05T05:22:56.524Z,19.10
2022-08-05T05:25:40.396Z,22.73
2022-08-05T05:28:08.504Z,24.47
2022-08-05T05:30:37.290Z,22.03
2022-08-05T05:33:16.010Z,28.10
2022-08-05T05:35:47.474Z,22.17
2022-08-05T05:38:22.731Z,23.40
2022-08-05T05:40:55.654Z,27.77
2022-08-05T05:43:56.671Z,32.37
2022-08-05T05:46:17.394Z,32.70
2022-08-05T05:48:47.949Z,30.47
2022-08-05T05:51:21.972Z,29.13
2022-08-05T05:53:57.273Z,33.03
2022-08-05T05:56:32.806Z,30.87
2022-08-05T05:59:03.394Z,36.90
2022-08-05T06:01:37.382Z,32.70
2022-08-05T06:04:07.579Z,37.67
2022-08-05T06:06:37.331Z,31.93
2022-08-05T06:09:17.346Z,38.27
2022-08-05T06:11:59.536Z,34.03
2022-08-05T06:14:30.074Z,36.93
2022-08-05T06:16:57.906Z,30.67
2022-08-05T06:19:34.440Z,32.77
2022-08-05T06:22:06.393Z,32.17
2022-08-05T06:24:35.020Z,28.03
2022-08-05T06:27:04.116Z,32.23
2022-08-05T06:29:49.548Z,29.17
2022-08-05T06:32:26.165Z,27.57
2022-08-05T06:34:58.370Z,30.17
2022-08-05T06:37:56.224Z,32.00
2022-08-05T06:40:18.512Z,29.97
2022-08-05T06:42:51.852Z,31.93
2022-08-05T06:45:44.594Z,30.93
2022-08-05T06:48:44.294Z,39.77
2022-08-05T06:50:56.959Z,45.20
2022-08-05T06:53:28.202Z,48.53
2022-08-05T06:55:56.463Z,50.57
2022-08-05T06:58:34.849Z,48.50
2022-08-05T07:01:05.513Z,52.90
2022-08-05T07:03:33.520Z,51.03
2022-08-05T07:06:06.307Z,58.17
2022-08-05T07:08:47.688Z,46.07
2022-08-05T07:11:22.561Z,52.27
2022-08-05T07:14:15.649Z,58.50
2022-08-05T07:18:00.090Z,61.20
2022-08-05T07:22:35.053Z,41.07
2022-08-05T07:25:23.870Z,40.40
2022-08-05T07:27:57.275Z,41.77
2022-08-05T07:30:31.889Z,37.60
2022-08-05T07:33:00.008Z,33.70
2022-08-05T07:36:02.190Z,32.97
2022-08-05T07:38:32.015Z,32.43
2022-08-05T07:42:09.547Z,29.77
2022-08-05T07:43:53.352Z,30.43
2022-08-05T07:46:25.982Z,36.03
2022-08-05T07:49:02.171Z,39.30
2022-08-05T07:51:40.277Z,39.40
2022-08-05T07:54:10.591Z,43.70
2022-08-05T07:57:02.740Z,47.27
2022-08-05T07:59:38.566Z,43.17
2022-08-05T08:02:15.916Z,43.60
2022-08-05T08:04:45.749Z,39.00
2022-08-05T08:07:13.774Z,35.37
2022-08-05T08:09:41.558Z,33.40
2022-08-05T08:12:27.477Z,32.80
2022-08-05T08:15:02.488Z,31.57
2022-08-05T08:17:31.388Z,27.87
2022-08-05T08:20:22.572Z,27.17
2022-08-05T08:22:52.069Z,33.10
2022-08-05T08:25:34.617Z,26.83
2022-08-05T08:28:18.268Z,19.90
2022-08-05T08:30:48.056Z,25.17
2022-08-05T08:33:17.739Z,18.97
2022-08-05T08:35:53.042Z,23.03
2022-08-05T08:38:35.935Z,20.27
2022-08-05T08:41:07.117Z,20.30
2022-08-05T08:45:17.713Z,17.13
2022-08-05T08:46:25.120Z,15.83
2022-08-05T08:49:07.721Z,19.73
2022-08-05T08:52:04.149Z,18.33
2022-08-05T08:54:32.405Z,19.73
2022-08-05T08:57:00.265Z,42.50
2022-08-05T08:59:33.779Z,17.50
2022-08-05T09:02:01.850Z,19.50
2022-08-05T09:04:30.143Z,17.20
2022-08-05T09:06:58.712Z,12.97
2022-08-05T09:09:34.757Z,18.03
2022-08-05T09:12:15.292Z,15.10
2022-08-05T09:14:56.691Z,11.40
2022-08-05T09:17:40.648Z,9.63
2022-08-05T09:20:11.172Z,9.97
2022-08-05T09:23:09.267Z,9.13
2022-08-05T09:26:02.571Z,10.80
2022-08-05T09:28:32.112Z,8.43
2022-08-05T09:31:44.008Z,12.17
2022-08-05T09:33:54.681Z,8.97
2022-08-05T09:36:27.575Z,14.00
2022-08-05T09:39:02.480Z,13.40
2022-08-05T09:41:33.202Z,13.33
2022-08-05T09:44:06.107Z,11.77
2022-08-05T09:46:36.007Z,9.20
2022-08-05T09:49:18.820Z,21.13
2022-08-05T09:51:48.806Z,13.00
2022-08-05T09:54:21.400Z,11.33
2022-08-05T09:56:57.639Z,12.33
2022-08-05T09:59:29.123Z,13.40
2022-08-05T10:02:04.653Z,13.37
2022-08-05T10:04:38.451Z,10.83
2022-08-05T10:07:19.672Z,14.93
2022-08-05T10:10:14.005Z,10.20
2022-08-05T10:12:49.246Z,9.00
2022-08-05T10:15:22.726Z,13.87
2022-08-05T10:18:11.398Z,15.10
2022-08-05T10:20:42.651Z,14.57
2022-08-05T10:23:34.717Z,9.93
2022-08-05T10:26:02.709Z,9.63
2022-08-05T10:28:31.247Z,6.67
2022-08-05T10:32:49.186Z,9.20
2022-08-05T10:33:52.243Z,6.60
2022-08-05T10:36:23.689Z,6.73
2022-08-05T10:38:57.504Z,8.27
2022-08-05T10:41:46.522Z,7.13
2022-08-05T10:44:18.158Z,9.87
2022-08-05T10:46:51.097Z,4.73
2022-08-05T10:49:26.994Z,7.07
2022-08-05T10:52:00.282Z,6.93
2022-08-05T10:54:56.278Z,3.63
2022-08-05T10:57:30.843Z,7.97
2022-08-05T11:00:17.940Z,5.70
2022-08-05T11:03:23.300Z,4.87
2022-08-05T11:06:15.866Z,4.23
2022-08-05T11:09:39.369Z,3.37
2022-08-05T11:12:50.898Z,6.97
2022-08-05T11:16:00.851Z,4.63
2022-08-05T11:18:26.335Z,5.00
2022-08-05T11:20:54.772Z,2.40
2022-08-05T11:24:03.181Z,5.13
2022-08-05T11:26:33.544Z,2.90
2022-08-05T11:29:11.665Z,5.97
2022-08-05T11:31:56.485Z,3.83
2022-08-05T11:34:39.096Z,4.80
2022-08-05T11:38:28.889Z,6.00
2022-08-05T11:40:03.268Z,4.87
2022-08-05T11:42:37.916Z,3.00
2022-08-05T11:45:23.556Z,3.93
2022-08-05T11:47:58.666Z,7.00
2022-08-05T11:50:26.885Z,2.73
2022-08-05T11:52:57.912Z,5.13
2022-08-05T11:55:31.966Z,6.20
2022-08-05T11:58:10.320Z,7.20
2022-08-05T12:00:41.592Z,6.33
2022-08-05T12:03:29.243Z,6.23
2022-08-05T12:06:06.365Z,7.00
2022-08-05T12:08:49.884Z,7.93
2022-08-05T12:11:21.508Z,4.73
2022-08-05T12:13:58.682Z,2.93
2022-08-05T12:16:28.811Z,10.57
2022-08-05T12:18:57.071Z,6.57
2022-08-05T12:21:30.295Z,4.93
2022-08-05T12:24:04.381Z,5.63
2022-08-05T12:26:35.362Z,7.47
2022-08-05T12:29:05.375Z,6.33
2022-08-05T12:31:46.112Z,5.33
2022-08-05T12:34:21.167Z,4.67
2022-08-05T12:36:52.487Z,6.40
2022-08-05T12:39:20.306Z,5.90
2022-08-05T12:41:49.566Z,4.83
2022-08-05T12:44:33.229Z,4.50
2022-08-05T12:47:02.544Z,5.60
2022-08-05T12:50:03.870Z,5.90
2022-08-05T12:52:33.947Z,4.93
2022-08-05T12:55:03.290Z,7.57
2022-08-05T12:58:13.603Z,3.63
2022-08-05T13:02:01.009Z,6.00
2022-08-05T13:03:15.042Z,7.50
2022-08-05T13:05:43.394Z,5.27
2022-08-05T13:08:12.730Z,9.47
2022-08-05T13:10:50.292Z,4.37
2022-08-05T13:14:05.434Z,5.50
2022-08-05T13:16:15.382Z,5.50
2022-08-05T13:18:52.480Z,6.37
2022-08-05T13:21:23.192Z,3.80
2022-08-05T13:23:56.520Z,3.77
2022-08-05T13:26:30.085Z,5.87
2022-08-05T13:28:59.548Z,7.30
2022-08-05T13:31:33.847Z,5.10
2022-08-05T13:34:24.869Z,5.40
2022-08-05T13:36:53.515Z,3.57
2022-08-05T13:39:24.554Z,4.43
2022-08-05T13:42:13.979Z,7.70
2022-08-05T13:44:45.652Z,4.10
2022-08-05T13:47:34.737Z,2.63
2022-08-05T13:50:04.706Z,2.57
2022-08-05T13:52:35.578Z,6.20
2022-08-05T13:55:07.722Z,3.23
2022-08-05T13:57:51.374Z,7.70
2022-08-05T14:00:27.001Z,3.50
2022-08-05T14:02:56.513Z,3.93
2022-08-05T14:05:48.129Z,3.90
2022-08-05T14:08:21.006Z,4.07
2022-08-05T14:10:59.787Z,4.00
2022-08-05T14:13:32.168Z,1.83
2022-08-05T14:16:07.634Z,2.10
2022-08-05T14:18:37.955Z,3.07
2022-08-05T14:21:23.875Z,2.57
2022-08-05T14:23:53.450Z,2.03
2022-08-05T14:26:38.352Z,2.03
2022-08-05T14:29:16.310Z,3.60
2022-08-05T14:32:02.882Z,5.50
2022-08-05T14:34:35.298Z,3.60
2022-08-05T14:37:03.790Z,2.10
2022-08-05T14:39:49.234Z,1.97
2022-08-05T14:42:21.701Z,3.07
2022-08-05T14:44:49.602Z,2.47
2022-08-05T14:48:04.033Z,3.03
2022-08-05T14:50:17.366Z,1.60
2022-08-05T14:52:58.704Z,2.87
2022-08-05T14:55:38.630Z,5.20
2022-08-05T14:58:11.762Z,2.50
2022-08-05T15:00:59.134Z,1.67
2022-08-05T15:03:33.930Z,1.83
2022-08-05T15:06:15.072Z,1.90
2022-08-05T15:08:58.329Z,5.07
2022-08-05T15:11:51.166Z,2.97
2022-08-05T15:14:20.079Z,2.40
2022-08-05T15:17:03.966Z,3.80
2022-08-05T15:19:33.780Z,2.67
2022-08-05T15:22:01.701Z,3.33
2022-08-05T15:24:30.062Z,3.83
2022-08-05T15:26:58.418Z,4.60
2022-08-05T15:29:29.729Z,1.60
2022-08-05T15:32:03.043Z,1.30
2022-08-05T15:34:35.197Z,3.30
2022-08-05T15:37:06.803Z,2.00
2022-08-05T15:40:59.877Z,3.13
2022-08-05T15:42:56.706Z,1.57
2022-08-05T15:45:18.976Z,2.57
2022-08-05T15:48:06.927Z,5.47
2022-08-05T15:50:36.142Z,3.00
2022-08-05T15:53:06.277Z,2.87
2022-08-05T15:56:02.267Z,1.47
2022-08-05T15:58:24.286Z,2.93
2022-08-05T16:01:11.726Z,1.23
2022-08-05T16:03:41.161Z,2.20
2022-08-05T16:06:11.411Z,2.90
2022-08-05T16:08:39.849Z,1.93
2022-08-05T16:11:08.191Z,1.30
2022-08-05T16:13:35.850Z,2.97
2022-08-05T16:16:03.841Z,2.00
2022-08-05T16:18:33.358Z,1.50
2022-08-05T16:21:04.178Z,3.70
2022-08-05T16:23:54.130Z,5.00
2022-08-05T16:26:26.365Z,1.47
2022-08-05T16:28:55.114Z,3.37
2022-08-05T16:31:23.077Z,2.23
2022-08-05T16:33:52.088Z,4.03
2022-08-05T16:36:23.876Z,4.33
2022-08-05T16:38:54.863Z,4.23
2022-08-05T16:42:13.872Z,2.83
2022-08-05T16:44:12.818Z,2.87
2022-08-05T16:46:41.749Z,3.17
2022-08-05T16:49:23.915Z,1.20
2022-08-05T16:51:54.918Z,0.60
2022-08-05T16:54:31.967Z,2.10
2022-08-05T16:57:01.565Z,0.63
2022-08-05T16:59:30.762Z,17.17
2022-08-05T17:01:59.474Z,30.00
2022-08-05T17:04:28.841Z,5.67
2022-08-05T17:07:00.641Z,50.57
2022-08-05T17:09:39.046Z,4.00
2022-08-05T17:12:22.549Z,16.03
2022-08-05T17:15:09.258Z,1.10
2022-08-05T17:17:42.412Z,15.40
2022-08-05T17:20:14.576Z,1.27
2022-08-05T17:22:44.925Z,1.73
2022-08-05T17:25:22.469Z,2.30
2022-08-05T17:28:01.617Z,0.80
2022-08-05T17:30:29.875Z,0.67
2022-08-05T17:32:57.718Z,1.70
2022-08-05T17:35:25.318Z,5.13
2022-08-05T17:38:04.973Z,1.77
2022-08-05T17:40:34.123Z,1.17
2022-08-05T17:43:02.899Z,0.57
2022-08-05T17:45:38.099Z,1.00
2022-08-05T17:48:07.813Z,2.03
2022-08-05T17:50:36.023Z,0.80
2022-08-05T17:53:05.395Z,1.10
2022-08-05T17:55:39.967Z,1.10
2022-08-05T17:58:10.864Z,1.07
2022-08-05T18:00:45.323Z,0.97
2022-08-05T18:03:39.372Z,2.00
2022-08-05T18:06:11.733Z,3.80
2022-08-05T18:08:52.715Z,3.63
2022-08-05T18:11:32.627Z,4.17
2022-08-05T18:14:04.321Z,3.33
2022-08-05T18:16:34.355Z,4.70
2022-08-05T18:19:03.432Z,5.67
2022-08-05T18:22:07.516Z,0.97
2022-08-05T18:24:18.766Z,3.97
2022-08-05T18:26:49.997Z,1.67
2022-08-05T18:29:17.623Z,1.37
2022-08-05T18:32:06.561Z,2.03
2022-08-05T18:34:41.502Z,7.23
2022-08-05T18:37:12.143Z,0.70
2022-08-05T18:40:30.965Z,1.50
2022-08-05T18:42:29.749Z,1.30
2022-08-05T18:44:57.525Z,1.47
2022-08-05T18:47:28.360Z,1.47
2022-08-05T18:50:16.472Z,1.63
2022-08-05T18:52:51.164Z,1.50
2022-08-05T18:55:19.969Z,1.77
2022-08-05T18:57:52.651Z,5.73
2022-08-05T19:00:28.513Z,1.50
2022-08-05T19:02:57.695Z,2.40
2022-08-05T19:06:12.382Z,3.10
2022-08-05T19:08:21.334Z,5.13
2022-08-05T19:10:49.758Z,2.10
2022-08-05T19:13:19.822Z,4.90
2022-08-05T19:15:59.983Z,0.87
2022-08-05T19:18:31.054Z,1.40
2022-08-05T19:20:59.509Z,2.23
2022-08-05T19:24:07.429Z,8.50
2022-08-05T19:26:16.593Z,1.03
2022-08-05T19:28:46.192Z,1.60
2022-08-05T19:31:17.756Z,2.87
2022-08-05T19:33:55.698Z,1.27
2022-08-05T19:36:24.953Z,2.77
2022-08-05T19:38:52.758Z,3.00
2022-08-05T19:41:21.888Z,1.33
2022-08-05T19:44:12.806Z,3.17
2022-08-05T19:46:41.559Z,1.27
2022-08-05T19:49:16.908Z,7.03
2022-08-05T19:52:04.227Z,1.63
2022-08-05T19:54:34.311Z,3.67
2022-08-05T19:57:02.695Z,6.00
2022-08-05T19:59:56.486Z,2.27
2022-08-05T20:02:27.947Z,1.37
2022-08-05T20:04:58.379Z,1.50
2022-08-05T20:07:45.903Z,3.33
2022-08-05T20:10:15.328Z,4.60
2022-08-05T20:12:47.709Z,3.47
2022-08-05T20:15:23.211Z,4.80
2022-08-05T20:18:10.973Z,5.17
2022-08-05T20:20:55.063Z,6.30
2022-08-05T20:23:39.551Z,3.77
2022-08-05T20:26:15.196Z,3.57
2022-08-05T20:28:44.494Z,4.40
2022-08-05T20:31:13.797Z,3.33
2022-08-05T20:33:44.827Z,2.97
2022-08-05T20:36:14.244Z,1.43
2022-08-05T20:38:54.524Z,3.00
2022-08-05T20:41:26.957Z,3.30
2022-08-05T20:43:59.069Z,2.17
2022-08-05T20:46:32.211Z,4.47
2022-08-05T20:48:59.889Z,4.90
2022-08-05T20:51:30.386Z,5.20
2022-08-05T20:54:01.364Z,2.97
2022-08-05T20:56:34.031Z,3.60
2022-08-05T20:59:14.086Z,5.47
2022-08-05T21:01:48.556Z,2.60
2022-08-05T21:04:18.230Z,2.57
2022-08-05T21:06:46.168Z,4.37
2022-08-05T21:09:14.890Z,2.53
2022-08-05T21:12:07.306Z,1.47
2022-08-05T21:14:31.480Z,2.77
2022-08-05T21:17:05.881Z,2.87
2022-08-05T21:19:47.331Z,1.37
2022-08-05T21:22:23.258Z,3.43
2022-08-05T21:24:52.579Z,1.80
2022-08-05T21:27:25.247Z,1.10
2022-08-05T21:29:55.488Z,3.30
2022-08-05T21:32:26.985Z,1.77
2022-08-05T21:34:55.993Z,2.53
2022-08-05T21:37:41.371Z,4.90
2022-08-05T21:40:13.058Z,3.40
2022-08-05T21:42:44.467Z,1.37
2022-08-05T21:45:25.091Z,1.90
2022-08-05T21:48:06.587Z,2.93
2022-08-05T21:50:36.620Z,3.63
2022-08-05T21:53:17.422Z,8.47
2022-08-05T21:56:05.055Z,2.67
2022-08-05T21:58:33.673Z,8.63
2022-08-05T22:01:01.658Z,5.10
2022-08-05T22:03:48.814Z,5.30
2022-08-05T22:06:22.858Z,4.40
2022-08-05T22:09:13.265Z,2.67
2022-08-05T22:11:43.018Z,3.00
2022-08-05T22:14:33.351Z,3.67
2022-08-05T22:17:04.860Z,4.47
2022-08-05T22:20:00.103Z,3.80
2022-08-05T22:22:27.108Z,1.47
2022-08-05T22:25:18.172Z,2.43
2022-08-05T22:28:08.826Z,6.07
2022-08-05T22:30:44.352Z,3.60
2022-08-05T22:33:56.944Z,4.10
2022-08-05T22:36:15.130Z,3.43
2022-08-05T22:38:47.945Z,2.00
2022-08-05T22:42:04.552Z,3.97
2022-08-05T22:44:05.413Z,3.77
2022-08-05T22:46:33.093Z,3.77
2022-08-05T22:49:00.753Z,3.93
2022-08-05T22:52:04.310Z,2.60
2022-08-05T22:54:17.462Z,2.93
2022-08-05T22:56:45.335Z,6.40
2022-08-05T22:59:43.582Z,4.97
2022-08-05T23:02:07.787Z,2.37
2022-08-05T23:04:36.387Z,3.77
2022-08-05T23:07:07.199Z,6.03
2022-08-05T23:09:57.251Z,4.40
2022-08-05T23:12:24.426Z,1.70
2022-08-05T23:14:52.531Z,4.13
2022-08-05T23:17:34.711Z,3.80
2022-08-05T23:20:16.591Z,3.30
2022-08-05T23:22:48.227Z,1.70
2022-08-05T23:25:17.582Z,6.90
2022-08-05T23:28:06.843Z,6.90
2022-08-05T23:30:40.072Z,6.63
2022-08-05T23:33:16.016Z,3.97
2022-08-05T23:35:50.575Z,2.30
2022-08-05T23:38:19.870Z,2.33
2022-08-05T23:40:49.981Z,2.20
2022-08-05T23:43:25.712Z,3.63
2022-08-05T23:46:19.985Z,4.07
2022-08-05T23:48:59.965Z,1.33
2022-08-05T23:51:53.626Z,2.97
2022-08-05T23:54:25.797Z,1.77
2022-08-05T23:56:54.979Z,1.70
2022-08-05T23:59:22.850Z,4.03
